sensor_id;sensor_type;location;lat;lon;timestamp;P1;durP1;ratioP1;P2;durP2;ratioP2
2129;SDS011;1071;52.544;13.374;2023-04-06T00:00:25;5.18;;;4.78;;
2129;SDS011;1071;52.544;13.374;2023-04-06T00:02:52;8.13;;;5.15;;
2129;SDS011;1071;52.544;13.374;2023-04-06T00:05:19;5.78;;;5.28;;
2129;SDS011;1071;52.544;13.374;2023-04-06T00:07:47;5.75;;;5.22;;
2129;SDS011;1071;52.544;13.374;2023-04-06T00:10:37;7.53;;;5.25;;
2129;SDS011;1071;52.544;13.374;2023-04-06T00:13:04;6.70;;;5.22;;
2129;SDS011;1071;52.544;13.374;2023-04-06T00:15:34;7.05;;;5.38;;
2129;SDS011;1071;52.544;13.374;2023-04-06T00:18:01;5.53;;;5.00;;
2129;SDS011;1071;52.544;13.374;2023-04-06T00:20:28;7.13;;;5.38;;
2129;SDS011;1071;52.544;13.374;2023-04-06T00:22:57;6.05;;;5.45;;
2129;SDS011;1071;52.544;13.374;2023-04-06T00:25:25;4.65;;;4.10;;
2129;SDS011;1071;52.544;13.374;2023-04-06T00:27:52;7.30;;;5.20;;
2129;SDS011;1071;52.544;13.374;2023-04-06T00:30:19;6.00;;;5.40;;
2129;SDS011;1071;52.544;13.374;2023-04-06T00:32:48;5.50;;;4.97;;
2129;SDS011;1071;52.544;13.374;2023-04-06T00:35:16;4.85;;;4.40;;
2129;SDS011;1071;52.544;13.374;2023-04-06T00:37:45;5.40;;;5.00;;
2129;SDS011;1071;52.544;13.374;2023-04-06T00:40:13;6.28;;;4.57;;
2129;SDS011;1071;52.544;13.374;2023-04-06T00:42:40;6.25;;;5.65;;
2129;SDS011;1071;52.544;13.374;2023-04-06T00:45:10;7.72;;;4.50;;
2129;SDS011;1071;52.544;13.374;2023-04-06T00:47:37;5.22;;;4.70;;
2129;SDS011;1071;52.544;13.374;2023-04-06T00:50:06;5.22;;;4.70;;
2129;SDS011;1071;52.544;13.374;2023-04-06T00:52:34;8.57;;;5.50;;
2129;SDS011;1071;52.544;13.374;2023-04-06T00:55:02;5.35;;;4.88;;
2129;SDS011;1071;52.544;13.374;2023-04-06T00:57:29;5.60;;;5.10;;
2129;SDS011;1071;52.544;13.374;2023-04-06T00:59:57;4.82;;;4.32;;
2129;SDS011;1071;52.544;13.374;2023-04-06T01:02:25;6.20;;;5.05;;
2129;SDS011;1071;52.544;13.374;2023-04-06T01:04:52;8.63;;;6.72;;
2129;SDS011;1071;52.544;13.374;2023-04-06T01:07:21;7.35;;;6.07;;
2129;SDS011;1071;52.544;13.374;2023-04-06T01:09:49;6.93;;;6.22;;
2129;SDS011;1071;52.544;13.374;2023-04-06T01:12:17;7.28;;;6.28;;
2129;SDS011;1071;52.544;13.374;2023-04-06T01:14:46;5.35;;;4.55;;
2129;SDS011;1071;52.544;13.374;2023-04-06T01:17:14;5.80;;;4.75;;
2129;SDS011;1071;52.544;13.374;2023-04-06T01:19:41;5.50;;;5.03;;
2129;SDS011;1071;52.544;13.374;2023-04-06T01:22:14;6.13;;;4.30;;
2129;SDS011;1071;52.544;13.374;2023-04-06T01:24:42;5.70;;;4.75;;
2129;SDS011;1071;52.544;13.374;2023-04-06T01:27:09;6.07;;;5.45;;
2129;SDS011;1071;52.544;13.374;2023-04-06T01:29:37;5.35;;;4.55;;
2129;SDS011;1071;52.544;13.374;2023-04-06T01:32:06;4.82;;;4.25;;
2129;SDS011;1071;52.544;13.374;2023-04-06T01:34:33;5.20;;;4.45;;
2129;SDS011;1071;52.544;13.374;2023-04-06T01:37:00;4.72;;;4.32;;
2129;SDS011;1071;52.544;13.374;2023-04-06T01:39:29;4.93;;;4.45;;
2129;SDS011;1071;52.544;13.374;2023-04-06T01:41:56;5.10;;;4.40;;
2129;SDS011;1071;52.544;13.374;2023-04-06T01:44:25;4.40;;;4.00;;
2129;SDS011;1071;52.544;13.374;2023-04-06T01:46:55;7.97;;;5.10;;
2129;SDS011;1071;52.544;13.374;2023-04-06T01:49:22;4.63;;;4.03;;
2129;SDS011;1071;52.544;13.374;2023-04-06T01:51:49;6.40;;;4.25;;
2129;SDS011;1071;52.544;13.374;2023-04-06T01:54:19;5.47;;;4.72;;
2129;SDS011;1071;52.544;13.374;2023-04-06T01:56:47;5.75;;;3.97;;
2129;SDS011;1071;52.544;13.374;2023-04-06T01:59:32;5.28;;;4.57;;
2129;SDS011;1071;52.544;13.374;2023-04-06T02:02:00;4.47;;;4.07;;
2129;SDS011;1071;52.544;13.374;2023-04-06T02:04:27;4.80;;;4.40;;
2129;SDS011;1071;52.544;13.374;2023-04-06T02:06:53;8.15;;;4.50;;
2129;SDS011;1071;52.544;13.374;2023-04-06T02:09:20;5.63;;;5.00;;
2129;SDS011;1071;52.544;13.374;2023-04-06T02:11:49;6.13;;;4.82;;
2129;SDS011;1071;52.544;13.374;2023-04-06T02:14:16;5.15;;;4.65;;
2129;SDS011;1071;52.544;13.374;2023-04-06T02:16:44;6.80;;;5.22;;
2129;SDS011;1071;52.544;13.374;2023-04-06T02:19:13;6.35;;;4.55;;
2129;SDS011;1071;52.544;13.374;2023-04-06T02:21:41;7.40;;;4.97;;
2129;SDS011;1071;52.544;13.374;2023-04-06T02:24:08;5.78;;;4.72;;
2129;SDS011;1071;52.544;13.374;2023-04-06T02:26:35;6.43;;;4.68;;
2129;SDS011;1071;52.544;13.374;2023-04-06T02:29:04;5.95;;;4.88;;
2129;SDS011;1071;52.544;13.374;2023-04-06T02:31:33;4.82;;;4.43;;
2129;SDS011;1071;52.544;13.374;2023-04-06T02:34:00;5.32;;;4.40;;
2129;SDS011;1071;52.544;13.374;2023-04-06T02:36:27;7.13;;;5.43;;
2129;SDS011;1071;52.544;13.374;2023-04-06T02:38:55;6.30;;;4.85;;
2129;SDS011;1071;52.544;13.374;2023-04-06T02:41:25;5.43;;;4.47;;
2129;SDS011;1071;52.544;13.374;2023-04-06T02:43:52;6.32;;;5.72;;
2129;SDS011;1071;52.544;13.374;2023-04-06T02:46:20;7.53;;;4.70;;
2129;SDS011;1071;52.544;13.374;2023-04-06T02:48:50;4.57;;;4.18;;
2129;SDS011;1071;52.544;13.374;2023-04-06T02:51:17;5.15;;;4.72;;
2129;SDS011;1071;52.544;13.374;2023-04-06T02:53:47;6.05;;;5.45;;
2129;SDS011;1071;52.544;13.374;2023-04-06T02:56:15;8.05;;;4.70;;
2129;SDS011;1071;52.544;13.374;2023-04-06T02:58:42;6.28;;;4.72;;
2129;SDS011;1071;52.544;13.374;2023-04-06T03:01:09;5.85;;;5.22;;
2129;SDS011;1071;52.544;13.374;2023-04-06T03:03:37;6.43;;;5.20;;
2129;SDS011;1071;52.544;13.374;2023-04-06T03:06:05;4.95;;;4.55;;
2129;SDS011;1071;52.544;13.374;2023-04-06T03:08:37;7.32;;;4.63;;
2129;SDS011;1071;52.544;13.374;2023-04-06T03:11:04;5.80;;;4.10;;
2129;SDS011;1071;52.544;13.374;2023-04-06T03:13:31;7.07;;;5.10;;
2129;SDS011;1071;52.544;13.374;2023-04-06T03:15:59;5.80;;;4.60;;
2129;SDS011;1071;52.544;13.374;2023-04-06T03:18:26;5.53;;;4.47;;
2129;SDS011;1071;52.544;13.374;2023-04-06T03:20:54;5.05;;;4.55;;
2129;SDS011;1071;52.544;13.374;2023-04-06T03:23:25;7.82;;;4.90;;
2129;SDS011;1071;52.544;13.374;2023-04-06T03:25:52;4.35;;;4.05;;
2129;SDS011;1071;52.544;13.374;2023-04-06T03:28:20;5.30;;;4.57;;
2129;SDS011;1071;52.544;13.374;2023-04-06T03:30:48;5.72;;;5.10;;
2129;SDS011;1071;52.544;13.374;2023-04-06T03:33:15;6.00;;;5.40;;
2129;SDS011;1071;52.544;13.374;2023-04-06T03:35:45;6.90;;;5.20;;
2129;SDS011;1071;52.544;13.374;2023-04-06T03:38:14;5.68;;;4.70;;
2129;SDS011;1071;52.544;13.374;2023-04-06T03:40:41;6.45;;;4.60;;
2129;SDS011;1071;52.544;13.374;2023-04-06T03:43:11;12.40;;;7.78;;
2129;SDS011;1071;52.544;13.374;2023-04-06T03:45:38;8.25;;;7.45;;
2129;SDS011;1071;52.544;13.374;2023-04-06T03:48:05;13.40;;;8.63;;
2129;SDS011;1071;52.544;13.374;2023-04-06T03:50:41;10.38;;;9.32;;
2129;SDS011;1071;52.544;13.374;2023-04-06T03:53:08;11.93;;;7.72;;
2129;SDS011;1071;52.544;13.374;2023-04-06T03:55:36;9.02;;;7.30;;
2129;SDS011;1071;52.544;13.374;2023-04-06T03:58:03;8.82;;;7.90;;
2129;SDS011;1071;52.544;13.374;2023-04-06T04:00:31;10.02;;;7.50;;
2129;SDS011;1071;52.544;13.374;2023-04-06T04:02:58;11.38;;;6.60;;
2129;SDS011;1071;52.544;13.374;2023-04-06T04:05:25;7.78;;;6.93;;
2129;SDS011;1071;52.544;13.374;2023-04-06T04:07:52;8.13;;;5.88;;
2129;SDS011;1071;52.544;13.374;2023-04-06T04:10:20;7.22;;;6.53;;
2129;SDS011;1071;52.544;13.374;2023-04-06T04:12:48;8.23;;;6.20;;
2129;SDS011;1071;52.544;13.374;2023-04-06T04:15:15;8.13;;;6.10;;
2129;SDS011;1071;52.544;13.374;2023-04-06T04:17:42;9.40;;;5.28;;
2129;SDS011;1071;52.544;13.374;2023-04-06T04:20:11;6.32;;;5.72;;
2129;SDS011;1071;52.544;13.374;2023-04-06T04:22:42;9.93;;;7.10;;
2129;SDS011;1071;52.544;13.374;2023-04-06T04:25:09;12.30;;;11.00;;
2129;SDS011;1071;52.544;13.374;2023-04-06T04:27:36;12.88;;;10.40;;
2129;SDS011;1071;52.544;13.374;2023-04-06T04:30:05;9.60;;;8.70;;
2129;SDS011;1071;52.544;13.374;2023-04-06T04:32:33;8.77;;;7.93;;
2129;SDS011;1071;52.544;13.374;2023-04-06T04:35:00;7.45;;;6.75;;
2129;SDS011;1071;52.544;13.374;2023-04-06T04:37:30;8.80;;;7.57;;
2129;SDS011;1071;52.544;13.374;2023-04-06T04:39:59;8.70;;;7.40;;
2129;SDS011;1071;52.544;13.374;2023-04-06T04:42:27;11.20;;;8.05;;
2129;SDS011;1071;52.544;13.374;2023-04-06T04:45:13;9.05;;;7.13;;
2129;SDS011;1071;52.544;13.374;2023-04-06T04:47:40;11.23;;;7.25;;
2129;SDS011;1071;52.544;13.374;2023-04-06T04:50:07;11.07;;;8.45;;
2129;SDS011;1071;52.544;13.374;2023-04-06T04:52:34;10.60;;;7.65;;
2129;SDS011;1071;52.544;13.374;2023-04-06T04:55:01;12.40;;;11.20;;
2129;SDS011;1071;52.544;13.374;2023-04-06T04:57:28;15.00;;;13.55;;
2129;SDS011;1071;52.544;13.374;2023-04-06T04:59:55;20.60;;;14.05;;
2129;SDS011;1071;52.544;13.374;2023-04-06T05:02:24;17.88;;;11.50;;
2129;SDS011;1071;52.544;13.374;2023-04-06T05:04:51;14.15;;;12.07;;
2129;SDS011;1071;52.544;13.374;2023-04-06T05:07:18;12.38;;;10.55;;
2129;SDS011;1071;52.544;13.374;2023-04-06T05:09:45;11.68;;;9.70;;
2129;SDS011;1071;52.544;13.374;2023-04-06T05:12:12;12.80;;;9.70;;
2129;SDS011;1071;52.544;13.374;2023-04-06T05:14:39;17.20;;;9.70;;
2129;SDS011;1071;52.544;13.374;2023-04-06T05:17:07;10.40;;;9.35;;
2129;SDS011;1071;52.544;13.374;2023-04-06T05:19:35;11.38;;;9.82;;
2129;SDS011;1071;52.544;13.374;2023-04-06T05:22:03;11.68;;;8.63;;
2129;SDS011;1071;52.544;13.374;2023-04-06T05:24:30;11.75;;;9.55;;
2129;SDS011;1071;52.544;13.374;2023-04-06T05:26:57;9.77;;;8.70;;
2129;SDS011;1071;52.544;13.374;2023-04-06T05:29:25;9.73;;;8.73;;
2129;SDS011;1071;52.544;13.374;2023-04-06T05:31:53;11.25;;;8.85;;
2129;SDS011;1071;52.544;13.374;2023-04-06T05:34:20;10.00;;;8.30;;
2129;SDS011;1071;52.544;13.374;2023-04-06T05:36:49;12.82;;;7.78;;
2129;SDS011;1071;52.544;13.374;2023-04-06T05:39:16;12.07;;;10.02;;
2129;SDS011;1071;52.544;13.374;2023-04-06T05:41:43;9.35;;;8.55;;
2129;SDS011;1071;52.544;13.374;2023-04-06T05:44:12;10.00;;;8.27;;
2129;SDS011;1071;52.544;13.374;2023-04-06T05:46:42;8.13;;;7.43;;
2129;SDS011;1071;52.544;13.374;2023-04-06T05:49:09;9.20;;;7.22;;
2129;SDS011;1071;52.544;13.374;2023-04-06T05:51:36;9.07;;;8.05;;
2129;SDS011;1071;52.544;13.374;2023-04-06T05:54:04;7.10;;;6.40;;
2129;SDS011;1071;52.544;13.374;2023-04-06T05:56:31;8.80;;;8.00;;
2129;SDS011;1071;52.544;13.374;2023-04-06T05:58:59;9.02;;;8.15;;
2129;SDS011;1071;52.544;13.374;2023-04-06T06:01:26;9.55;;;8.65;;
2129;SDS011;1071;52.544;13.374;2023-04-06T06:03:54;7.88;;;7.13;;
2129;SDS011;1071;52.544;13.374;2023-04-06T06:06:21;9.88;;;8.88;;
2129;SDS011;1071;52.544;13.374;2023-04-06T06:08:50;10.15;;;8.77;;
2129;SDS011;1071;52.544;13.374;2023-04-06T06:11:18;11.40;;;9.00;;
2129;SDS011;1071;52.544;13.374;2023-04-06T06:13:45;10.73;;;8.60;;
2129;SDS011;1071;52.544;13.374;2023-04-06T06:16:12;8.52;;;7.65;;
2129;SDS011;1071;52.544;13.374;2023-04-06T06:18:40;9.07;;;8.27;;
2129;SDS011;1071;52.544;13.374;2023-04-06T06:21:07;11.05;;;8.52;;
2129;SDS011;1071;52.544;13.374;2023-04-06T06:23:34;11.05;;;7.38;;
2129;SDS011;1071;52.544;13.374;2023-04-06T06:26:01;8.80;;;7.90;;
2129;SDS011;1071;52.544;13.374;2023-04-06T06:28:31;9.52;;;8.15;;
2129;SDS011;1071;52.544;13.374;2023-04-06T06:31:26;8.77;;;7.97;;
2129;SDS011;1071;52.544;13.374;2023-04-06T06:33:54;9.45;;;8.32;;
2129;SDS011;1071;52.544;13.374;2023-04-06T06:36:21;9.13;;;8.15;;
2129;SDS011;1071;52.544;13.374;2023-04-06T06:38:55;9.73;;;7.80;;
2129;SDS011;1071;52.544;13.374;2023-04-06T06:41:23;11.10;;;7.53;;
2129;SDS011;1071;52.544;13.374;2023-04-06T06:43:52;13.68;;;8.73;;
2129;SDS011;1071;52.544;13.374;2023-04-06T06:46:21;8.20;;;7.40;;
2129;SDS011;1071;52.544;13.374;2023-04-06T06:48:48;9.23;;;8.20;;
2129;SDS011;1071;52.544;13.374;2023-04-06T06:51:15;9.40;;;8.57;;
2129;SDS011;1071;52.544;13.374;2023-04-06T06:53:42;8.50;;;7.25;;
2129;SDS011;1071;52.544;13.374;2023-04-06T06:56:09;8.73;;;7.22;;
2129;SDS011;1071;52.544;13.374;2023-04-06T06:58:36;15.25;;;8.45;;
2129;SDS011;1071;52.544;13.374;2023-04-06T07:01:05;9.23;;;8.18;;
2129;SDS011;1071;52.544;13.374;2023-04-06T07:03:32;7.90;;;7.10;;
2129;SDS011;1071;52.544;13.374;2023-04-06T07:05:59;8.40;;;7.28;;
2129;SDS011;1071;52.544;13.374;2023-04-06T07:08:26;8.55;;;6.90;;
2129;SDS011;1071;52.544;13.374;2023-04-06T07:10:53;9.50;;;7.65;;
2129;SDS011;1071;52.544;13.374;2023-04-06T07:13:22;12.02;;;7.30;;
2129;SDS011;1071;52.544;13.374;2023-04-06T07:15:49;8.13;;;7.25;;
2129;SDS011;1071;52.544;13.374;2023-04-06T07:18:17;8.00;;;7.22;;
2129;SDS011;1071;52.544;13.374;2023-04-06T07:20:44;7.03;;;6.40;;
2129;SDS011;1071;52.544;13.374;2023-04-06T07:23:11;9.05;;;6.40;;
2129;SDS011;1071;52.544;13.374;2023-04-06T07:25:56;6.40;;;5.72;;
2129;SDS011;1071;52.544;13.374;2023-04-06T07:28:23;7.18;;;5.90;;
2129;SDS011;1071;52.544;13.374;2023-04-06T07:30:50;11.07;;;7.47;;
2129;SDS011;1071;52.544;13.374;2023-04-06T07:33:18;6.68;;;5.93;;
2129;SDS011;1071;52.544;13.374;2023-04-06T07:35:45;8.02;;;6.32;;
2129;SDS011;1071;52.544;13.374;2023-04-06T07:38:21;5.10;;;4.45;;
2129;SDS011;1071;52.544;13.374;2023-04-06T07:40:48;8.00;;;5.70;;
2129;SDS011;1071;52.544;13.374;2023-04-06T07:43:15;7.95;;;7.03;;
2129;SDS011;1071;52.544;13.374;2023-04-06T07:45:42;7.82;;;6.95;;
2129;SDS011;1071;52.544;13.374;2023-04-06T07:48:10;6.20;;;5.60;;
2129;SDS011;1071;52.544;13.374;2023-04-06T07:50:40;5.70;;;5.20;;
2129;SDS011;1071;52.544;13.374;2023-04-06T07:53:07;7.50;;;6.20;;
2129;SDS011;1071;52.544;13.374;2023-04-06T07:55:35;9.40;;;5.72;;
2129;SDS011;1071;52.544;13.374;2023-04-06T07:58:04;6.22;;;5.70;;
2129;SDS011;1071;52.544;13.374;2023-04-06T08:00:32;7.00;;;5.32;;
2129;SDS011;1071;52.544;13.374;2023-04-06T08:03:05;9.00;;;6.43;;
2129;SDS011;1071;52.544;13.374;2023-04-06T08:05:32;7.20;;;5.70;;
2129;SDS011;1071;52.544;13.374;2023-04-06T08:08:01;6.43;;;5.60;;
2129;SDS011;1071;52.544;13.374;2023-04-06T08:10:28;5.97;;;5.38;;
2129;SDS011;1071;52.544;13.374;2023-04-06T08:12:55;6.03;;;4.70;;
2129;SDS011;1071;52.544;13.374;2023-04-06T08:15:22;6.80;;;6.20;;
2129;SDS011;1071;52.544;13.374;2023-04-06T08:17:50;5.93;;;5.20;;
2129;SDS011;1071;52.544;13.374;2023-04-06T08:20:17;5.88;;;5.47;;
2129;SDS011;1071;52.544;13.374;2023-04-06T08:23:00;5.75;;;5.22;;
2129;SDS011;1071;52.544;13.374;2023-04-06T08:25:27;4.97;;;4.57;;
2129;SDS011;1071;52.544;13.374;2023-04-06T08:27:55;7.80;;;4.88;;
2129;SDS011;1071;52.544;13.374;2023-04-06T08:30:30;4.65;;;4.25;;
2129;SDS011;1071;52.544;13.374;2023-04-06T08:33:01;6.30;;;4.68;;
2129;SDS011;1071;52.544;13.374;2023-04-06T08:35:31;8.45;;;5.28;;
2129;SDS011;1071;52.544;13.374;2023-04-06T08:37:58;5.38;;;4.10;;
2129;SDS011;1071;52.544;13.374;2023-04-06T08:40:27;4.78;;;3.92;;
2129;SDS011;1071;52.544;13.374;2023-04-06T08:42:55;5.90;;;4.80;;
2129;SDS011;1071;52.544;13.374;2023-04-06T08:45:27;5.30;;;3.70;;
2129;SDS011;1071;52.544;13.374;2023-04-06T08:47:54;7.45;;;4.03;;
2129;SDS011;1071;52.544;13.374;2023-04-06T08:50:26;8.73;;;3.70;;
2129;SDS011;1071;52.544;13.374;2023-04-06T08:52:57;3.75;;;3.45;;
2129;SDS011;1071;52.544;13.374;2023-04-06T08:55:24;3.85;;;3.05;;
2129;SDS011;1071;52.544;13.374;2023-04-06T08:57:52;3.75;;;3.33;;
2129;SDS011;1071;52.544;13.374;2023-04-06T09:00:25;3.33;;;3.03;;
2129;SDS011;1071;52.544;13.374;2023-04-06T09:02:53;3.22;;;2.92;;
2129;SDS011;1071;52.544;13.374;2023-04-06T09:05:22;6.65;;;3.22;;
2129;SDS011;1071;52.544;13.374;2023-04-06T09:07:51;3.25;;;2.90;;
2129;SDS011;1071;52.544;13.374;2023-04-06T09:10:18;2.92;;;2.72;;
2129;SDS011;1071;52.544;13.374;2023-04-06T09:12:51;2.65;;;2.45;;
2129;SDS011;1071;52.544;13.374;2023-04-06T09:15:58;3.97;;;2.95;;
2129;SDS011;1071;52.544;13.374;2023-04-06T09:18:29;3.20;;;2.90;;
2129;SDS011;1071;52.544;13.374;2023-04-06T09:20:58;4.03;;;3.08;;
2129;SDS011;1071;52.544;13.374;2023-04-06T09:23:28;2.80;;;2.58;;
2129;SDS011;1071;52.544;13.374;2023-04-06T09:26:05;3.83;;;2.45;;
2129;SDS011;1071;52.544;13.374;2023-04-06T09:28:47;4.05;;;2.95;;
2129;SDS011;1071;52.544;13.374;2023-04-06T09:31:15;2.92;;;2.72;;
2129;SDS011;1071;52.544;13.374;2023-04-06T09:33:47;6.57;;;4.28;;
2129;SDS011;1071;52.544;13.374;2023-04-06T09:36:14;2.95;;;2.70;;
2129;SDS011;1071;52.544;13.374;2023-04-06T09:38:54;3.00;;;2.65;;
2129;SDS011;1071;52.544;13.374;2023-04-06T09:41:25;2.50;;;2.15;;
2129;SDS011;1071;52.544;13.374;2023-04-06T09:44:03;3.58;;;2.67;;
2129;SDS011;1071;52.544;13.374;2023-04-06T09:46:31;3.60;;;3.28;;
2129;SDS011;1071;52.544;13.374;2023-04-06T09:49:00;4.32;;;3.70;;
2129;SDS011;1071;52.544;13.374;2023-04-06T09:51:29;6.93;;;2.60;;
2129;SDS011;1071;52.544;13.374;2023-04-06T09:53:57;3.88;;;2.25;;
2129;SDS011;1071;52.544;13.374;2023-04-06T09:59:14;4.38;;;3.03;;
2129;SDS011;1071;52.544;13.374;2023-04-06T10:01:46;2.78;;;2.58;;
2129;SDS011;1071;52.544;13.374;2023-04-06T10:04:21;2.90;;;2.60;;
2129;SDS011;1071;52.544;13.374;2023-04-06T10:07:00;2.80;;;2.50;;
2129;SDS011;1071;52.544;13.374;2023-04-06T10:09:29;2.95;;;2.22;;
2129;SDS011;1071;52.544;13.374;2023-04-06T10:12:18;5.03;;;2.85;;
2129;SDS011;1071;52.544;13.374;2023-04-06T10:14:48;2.30;;;2.10;;
2129;SDS011;1071;52.544;13.374;2023-04-06T10:17:15;2.55;;;1.90;;
2129;SDS011;1071;52.544;13.374;2023-04-06T10:19:44;4.93;;;2.90;;
2129;SDS011;1071;52.544;13.374;2023-04-06T10:22:18;2.00;;;1.80;;
2129;SDS011;1071;52.544;13.374;2023-04-06T10:24:52;6.60;;;1.65;;
2129;SDS011;1071;52.544;13.374;2023-04-06T10:27:26;2.35;;;2.03;;
2129;SDS011;1071;52.544;13.374;2023-04-06T10:30:00;5.32;;;1.70;;
2129;SDS011;1071;52.544;13.374;2023-04-06T10:32:32;2.45;;;1.88;;
2129;SDS011;1071;52.544;13.374;2023-04-06T10:35:06;1.52;;;1.42;;
2129;SDS011;1071;52.544;13.374;2023-04-06T10:37:51;2.30;;;2.13;;
2129;SDS011;1071;52.544;13.374;2023-04-06T10:40:20;2.75;;;2.40;;
2129;SDS011;1071;52.544;13.374;2023-04-06T10:42:49;3.22;;;2.92;;
2129;SDS011;1071;52.544;13.374;2023-04-06T10:45:21;4.40;;;2.55;;
2129;SDS011;1071;52.544;13.374;2023-04-06T10:47:50;4.55;;;3.53;;
2129;SDS011;1071;52.544;13.374;2023-04-06T10:50:21;3.40;;;3.10;;
2129;SDS011;1071;52.544;13.374;2023-04-06T10:52:57;2.97;;;2.30;;
2129;SDS011;1071;52.544;13.374;2023-04-06T10:55:34;2.25;;;1.95;;
2129;SDS011;1071;52.544;13.374;2023-04-06T10:58:05;3.25;;;2.50;;
2129;SDS011;1071;52.544;13.374;2023-04-06T11:00:36;1.67;;;1.58;;
2129;SDS011;1071;52.544;13.374;2023-04-06T11:03:13;2.20;;;2.10;;
2129;SDS011;1071;52.544;13.374;2023-04-06T11:05:55;4.80;;;1.95;;
2129;SDS011;1071;52.544;13.374;2023-04-06T11:08:32;3.60;;;2.85;;
2129;SDS011;1071;52.544;13.374;2023-04-06T11:11:04;3.25;;;2.95;;
2129;SDS011;1071;52.544;13.374;2023-04-06T11:13:39;2.45;;;2.25;;
2129;SDS011;1071;52.544;13.374;2023-04-06T11:16:12;3.38;;;2.20;;
2129;SDS011;1071;52.544;13.374;2023-04-06T11:18:50;2.50;;;2.30;;
2129;SDS011;1071;52.544;13.374;2023-04-06T11:21:31;2.63;;;2.40;;
2129;SDS011;1071;52.544;13.374;2023-04-06T11:24:08;5.88;;;2.85;;
2129;SDS011;1071;52.544;13.374;2023-04-06T11:26:37;3.03;;;2.70;;
2129;SDS011;1071;52.544;13.374;2023-04-06T11:29:07;2.15;;;1.85;;
2129;SDS011;1071;52.544;13.374;2023-04-06T11:31:40;2.67;;;1.98;;
2129;SDS011;1071;52.544;13.374;2023-04-06T11:34:11;2.47;;;2.28;;
2129;SDS011;1071;52.544;13.374;2023-04-06T11:36:39;2.17;;;2.08;;
2129;SDS011;1071;52.544;13.374;2023-04-06T11:39:12;2.50;;;2.30;;
2129;SDS011;1071;52.544;13.374;2023-04-06T11:41:40;2.28;;;2.05;;
2129;SDS011;1071;52.544;13.374;2023-04-06T11:44:07;3.05;;;2.35;;
2129;SDS011;1071;52.544;13.374;2023-04-06T11:46:35;1.85;;;1.67;;
2129;SDS011;1071;52.544;13.374;2023-04-06T11:49:05;2.20;;;2.00;;
2129;SDS011;1071;52.544;13.374;2023-04-06T11:51:35;3.72;;;2.40;;
2129;SDS011;1071;52.544;13.374;2023-04-06T11:54:02;5.43;;;3.90;;
2129;SDS011;1071;52.544;13.374;2023-04-06T11:56:34;9.80;;;6.70;;
2129;SDS011;1071;52.544;13.374;2023-04-06T11:59:03;3.13;;;2.83;;
2129;SDS011;1071;52.544;13.374;2023-04-06T12:01:34;2.83;;;2.10;;
2129;SDS011;1071;52.544;13.374;2023-04-06T12:04:15;5.13;;;3.15;;
2129;SDS011;1071;52.544;13.374;2023-04-06T12:06:45;2.83;;;2.03;;
2129;SDS011;1071;52.544;13.374;2023-04-06T12:09:13;2.65;;;2.45;;
2129;SDS011;1071;52.544;13.374;2023-04-06T12:11:40;3.53;;;2.85;;
2129;SDS011;1071;52.544;13.374;2023-04-06T12:14:10;3.10;;;2.80;;
2129;SDS011;1071;52.544;13.374;2023-04-06T12:16:39;2.10;;;1.90;;
2129;SDS011;1071;52.544;13.374;2023-04-06T12:19:07;3.22;;;2.67;;
2129;SDS011;1071;52.544;13.374;2023-04-06T12:21:37;2.78;;;2.58;;
2129;SDS011;1071;52.544;13.374;2023-04-06T12:24:14;3.53;;;2.72;;
2129;SDS011;1071;52.544;13.374;2023-04-06T12:26:42;2.00;;;1.83;;
2129;SDS011;1071;52.544;13.374;2023-04-06T12:29:09;4.03;;;3.15;;
2129;SDS011;1071;52.544;13.374;2023-04-06T12:31:38;4.10;;;2.07;;
2129;SDS011;1071;52.544;13.374;2023-04-06T12:34:09;3.38;;;2.00;;
2129;SDS011;1071;52.544;13.374;2023-04-06T12:36:37;3.42;;;2.78;;
2129;SDS011;1071;52.544;13.374;2023-04-06T12:39:05;3.53;;;2.65;;
2129;SDS011;1071;52.544;13.374;2023-04-06T12:41:32;5.97;;;2.92;;
2129;SDS011;1071;52.544;13.374;2023-04-06T12:43:59;2.20;;;2.03;;
2129;SDS011;1071;52.544;13.374;2023-04-06T12:46:27;2.65;;;2.45;;
2129;SDS011;1071;52.544;13.374;2023-04-06T12:48:55;2.70;;;2.50;;
2129;SDS011;1071;52.544;13.374;2023-04-06T12:51:24;2.47;;;1.95;;
2129;SDS011;1071;52.544;13.374;2023-04-06T12:53:53;2.70;;;2.50;;
2129;SDS011;1071;52.544;13.374;2023-04-06T12:56:20;3.17;;;2.30;;
2129;SDS011;1071;52.544;13.374;2023-04-06T12:58:47;2.30;;;2.10;;
2129;SDS011;1071;52.544;13.374;2023-04-06T13:01:15;2.45;;;2.20;;
2129;SDS011;1071;52.544;13.374;2023-04-06T13:03:42;2.33;;;2.13;;
2129;SDS011;1071;52.544;13.374;2023-04-06T13:06:10;3.20;;;2.50;;
2129;SDS011;1071;52.544;13.374;2023-04-06T13:08:38;3.70;;;2.50;;
2129;SDS011;1071;52.544;13.374;2023-04-06T13:11:07;2.53;;;2.30;;
2129;SDS011;1071;52.544;13.374;2023-04-06T13:13:34;3.80;;;3.17;;
2129;SDS011;1071;52.544;13.374;2023-04-06T13:16:02;2.53;;;2.33;;
2129;SDS011;1071;52.544;13.374;2023-04-06T13:18:30;3.97;;;2.25;;
2129;SDS011;1071;52.544;13.374;2023-04-06T13:20:59;3.23;;;2.50;;
2129;SDS011;1071;52.544;13.374;2023-04-06T13:23:26;3.40;;;3.00;;
2129;SDS011;1071;52.544;13.374;2023-04-06T13:25:59;2.57;;;2.07;;
2129;SDS011;1071;52.544;13.374;2023-04-06T13:28:28;2.80;;;2.53;;
2129;SDS011;1071;52.544;13.374;2023-04-06T13:30:57;2.67;;;2.20;;
2129;SDS011;1071;52.544;13.374;2023-04-06T13:33:25;2.57;;;2.37;;
2129;SDS011;1071;52.544;13.374;2023-04-06T13:35:53;2.73;;;2.50;;
2129;SDS011;1071;52.544;13.374;2023-04-06T13:38:20;3.60;;;2.90;;
2129;SDS011;1071;52.544;13.374;2023-04-06T13:40:49;3.97;;;2.92;;
2129;SDS011;1071;52.544;13.374;2023-04-06T13:43:16;2.60;;;2.40;;
2129;SDS011;1071;52.544;13.374;2023-04-06T13:45:49;2.20;;;2.00;;
2129;SDS011;1071;52.544;13.374;2023-04-06T13:48:17;2.83;;;2.25;;
2129;SDS011;1071;52.544;13.374;2023-04-06T13:50:47;4.50;;;2.88;;
2129;SDS011;1071;52.544;13.374;2023-04-06T13:53:31;2.80;;;2.55;;
2129;SDS011;1071;52.544;13.374;2023-04-06T13:55:58;3.47;;;2.30;;
2129;SDS011;1071;52.544;13.374;2023-04-06T13:58:34;3.77;;;2.60;;
2129;SDS011;1071;52.544;13.374;2023-04-06T14:01:05;3.60;;;2.43;;
2129;SDS011;1071;52.544;13.374;2023-04-06T14:03:36;3.28;;;2.20;;
2129;SDS011;1071;52.544;13.374;2023-04-06T14:06:09;3.67;;;2.90;;
2129;SDS011;1071;52.544;13.374;2023-04-06T14:08:36;4.32;;;2.50;;
2129;SDS011;1071;52.544;13.374;2023-04-06T14:11:03;2.90;;;2.55;;
2129;SDS011;1071;52.544;13.374;2023-04-06T14:13:33;2.78;;;2.17;;
2129;SDS011;1071;52.544;13.374;2023-04-06T14:16:00;4.07;;;2.50;;
2129;SDS011;1071;52.544;13.374;2023-04-06T14:18:28;2.63;;;2.42;;
2129;SDS011;1071;52.544;13.374;2023-04-06T14:20:59;4.00;;;3.15;;
2129;SDS011;1071;52.544;13.374;2023-04-06T14:23:29;4.57;;;3.38;;
2129;SDS011;1071;52.544;13.374;2023-04-06T14:26:01;3.38;;;2.58;;
2129;SDS011;1071;52.544;13.374;2023-04-06T14:28:30;2.92;;;2.72;;
2129;SDS011;1071;52.544;13.374;2023-04-06T14:30:58;3.80;;;2.72;;
2129;SDS011;1071;52.544;13.374;2023-04-06T14:33:34;2.70;;;2.38;;
2129;SDS011;1071;52.544;13.374;2023-04-06T14:36:05;2.97;;;2.67;;
2129;SDS011;1071;52.544;13.374;2023-04-06T14:38:33;3.60;;;2.67;;
2129;SDS011;1071;52.544;13.374;2023-04-06T14:41:00;2.50;;;2.28;;
2129;SDS011;1071;52.544;13.374;2023-04-06T14:43:27;4.00;;;2.65;;
2129;SDS011;1071;52.544;13.374;2023-04-06T14:45:54;5.40;;;4.90;;
2129;SDS011;1071;52.544;13.374;2023-04-06T14:48:44;2.70;;;2.50;;
2129;SDS011;1071;52.544;13.374;2023-04-06T14:51:11;2.95;;;2.75;;
2129;SDS011;1071;52.544;13.374;2023-04-06T14:53:38;3.25;;;2.92;;
2129;SDS011;1071;52.544;13.374;2023-04-06T14:56:06;4.10;;;2.75;;
2129;SDS011;1071;52.544;13.374;2023-04-06T14:58:33;3.40;;;3.10;;
2129;SDS011;1071;52.544;13.374;2023-04-06T15:01:03;3.30;;;3.00;;
2129;SDS011;1071;52.544;13.374;2023-04-06T15:03:31;2.60;;;2.40;;
2129;SDS011;1071;52.544;13.374;2023-04-06T15:06:03;2.72;;;2.53;;
2129;SDS011;1071;52.544;13.374;2023-04-06T15:08:31;3.30;;;3.00;;
2129;SDS011;1071;52.544;13.374;2023-04-06T15:11:01;3.92;;;2.97;;
2129;SDS011;1071;52.544;13.374;2023-04-06T15:13:31;3.22;;;2.92;;
2129;SDS011;1071;52.544;13.374;2023-04-06T15:15:58;3.85;;;3.55;;